Time;durP1;ratioP1;P1;durP2;ratioP2;P2;SDS_P1;SDS_P2;PMS_P1;PMS_P2;Temp;Humidity;BMP_temperature;BMP_pressure;BME280_temperature;BME280_humidity;BME280_pressure;Samples;Min_cycle;Max_cycle;Signal;HPM_P1;HPM_P2
2022/01/07 00:02:15;;;;;;;10.63;8.40;;;0.30;93.00;;;;;;5119366;28;20426;-44
2022/01/07 00:04:41;;;;;;;14.20;8.97;;;0.30;93.00;;;;;;5101185;28;20177;-45
2022/01/07 00:07:08;;;;;;;11.13;8.77;;;0.30;93.00;;;;;;5101062;28;20859;-45
2022/01/07 00:09:38;;;;;;;14.33;8.30;;;0.30;93.00;;;;;;5101023;28;20196;-45
2022/01/07 00:12:08;;;;;;;9.40;7.53;;;0.30;93.30;;;;;;5100899;28;20421;-45
2022/01/07 00:14:34;;;;;;;11.53;8.60;;;0.30;92.90;;;;;;5118979;28;20421;-45
2022/01/07 00:16:59;;;;;;;12.37;9.10;;;0.20;92.90;;;;;;5119154;28;20676;-45
2022/01/07 00:19:35;;;;;;;10.63;7.97;;;0.20;93.00;;;;;;5118951;28;20482;-45
2022/01/07 00:22:01;;;;;;;13.40;8.67;;;0.20;93.20;;;;;;5119367;28;20186;-45
2022/01/07 00:24:26;;;;;;;11.10;8.20;;;0.20;93.30;;;;;;5118886;28;20418;-44
2022/01/07 00:26:58;;;;;;;10.23;8.27;;;0.20;93.30;;;;;;5118980;28;20176;-44
2022/01/07 00:29:24;;;;;;;8.97;7.50;;;0.20;93.30;;;;;;5118718;28;20211;-44
2022/01/07 00:31:49;;;;;;;9.80;7.50;;;0.20;93.30;;;;;;5118412;28;20770;-45
2022/01/07 00:34:15;;;;;;;12.33;8.00;;;0.20;93.30;;;;;;5083466;28;20168;-45
2022/01/07 00:36:41;;;;;;;13.00;8.20;;;0.20;93.20;;;;;;5119539;28;20176;-44
2022/01/07 00:39:07;;;;;;;10.43;8.33;;;0.20;93.20;;;;;;5101001;28;20176;-44
2022/01/07 00:41:32;;;;;;;10.97;8.60;;;0.20;93.20;;;;;;5083753;28;20200;-44
2022/01/07 00:44:07;;;;;;;10.30;7.10;;;0.20;93.20;;;;;;5118682;28;20505;-45
2022/01/07 00:46:33;;;;;;;9.57;8.23;;;0.20;93.20;;;;;;5118734;28;20194;-44
2022/01/07 00:48:59;;;;;;;13.10;8.33;;;0.10;93.10;;;;;;5100594;28;20429;-44
2022/01/07 00:51:26;;;;;;;11.60;9.23;;;0.10;93.10;;;;;;5118271;28;20497;-44
2022/01/07 00:53:51;;;;;;;13.43;7.97;;;0.10;93.10;;;;;;5100465;28;20558;-45
2022/01/07 00:56:17;;;;;;;11.27;8.43;;;0.10;93.10;;;;;;5118290;28;20466;-45
2022/01/07 00:58:43;;;;;;;11.57;8.87;;;0.10;93.10;;;;;;5118488;28;20225;-44
2022/01/07 01:01:08;;;;;;;10.83;8.80;;;0.00;93.10;;;;;;5118123;28;20599;-44
2022/01/07 01:03:34;;;;;;;13.70;8.43;;;0.00;93.20;;;;;;5118117;28;20184;-44
2022/01/07 01:06:02;;;;;;;11.80;9.50;;;0.00;93.20;;;;;;5118425;28;20494;-44
2022/01/07 01:08:28;;;;;;;12.37;9.80;;;0.00;93.20;;;;;;5118018;28;20258;-44
2022/01/07 01:10:54;;;;;;;13.70;9.90;;;0.00;93.30;;;;;;5117807;28;20581;-44
2022/01/07 01:13:21;;;;;;;14.40;9.27;;;0.00;93.40;;;;;;5118009;28;20525;-44
2022/01/07 01:15:47;;;;;;;13.63;10.03;;;0.00;93.40;;;;;;5118374;28;20403;-44
2022/01/07 01:18:18;;;;;;;11.00;9.07;;;0.00;93.50;;;;;;5117893;28;20460;-44
2022/01/07 01:20:44;;;;;;;13.80;9.63;;;0.00;93.60;;;;;;5117033;28;20417;-45
2022/01/07 01:23:10;;;;;;;12.30;8.93;;;0.00;93.60;;;;;;5117121;28;20433;-44
2022/01/07 01:25:35;;;;;;;12.70;9.00;;;0.00;93.50;;;;;;5098721;28;20201;-44
2022/01/07 01:28:01;;;;;;;10.80;9.50;;;0.00;93.60;;;;;;5117047;28;20462;-44
2022/01/07 01:30:32;;;;;;;14.57;9.90;;;-0.10;93.50;;;;;;5117590;28;20208;-44
2022/01/07 01:32:59;;;;;;;14.63;9.37;;;-0.10;93.40;;;;;;5118123;28;20175;-44
2022/01/07 01:35:24;;;;;;;12.63;9.67;;;-0.10;93.40;;;;;;5117911;28;20505;-44
2022/01/07 01:37:50;;;;;;;11.90;9.13;;;-0.10;93.40;;;;;;5117950;28;20840;-44
2022/01/07 01:40:18;;;;;;;16.10;9.70;;;-0.10;93.40;;;;;;5118165;28;20551;-44
2022/01/07 01:42:44;;;;;;;13.23;8.50;;;-0.10;93.40;;;;;;5099961;28;20414;-44
2022/01/07 01:45:11;;;;;;;11.33;9.97;;;-0.10;93.30;;;;;;5121073;28;20683;-45
2022/01/07 01:47:37;;;;;;;12.03;9.10;;;-0.20;93.30;;;;;;5121953;28;20861;-45
2022/01/07 01:50:04;;;;;;;11.80;8.80;;;-0.20;93.30;;;;;;5121741;28;20510;-44
2022/01/07 01:52:30;;;;;;;11.67;9.20;;;-0.20;93.30;;;;;;5122147;28;20406;-44
2022/01/07 01:54:55;;;;;;;12.37;9.00;;;-0.20;93.30;;;;;;5100525;28;20466;-44
2022/01/07 01:57:22;;;;;;;11.57;9.30;;;-0.20;93.40;;;;;;5100561;28;20187;-45
2022/01/07 01:59:48;;;;;;;13.47;9.27;;;-0.20;93.40;;;;;;5101520;28;20434;-44
2022/01/07 02:02:16;;;;;;;10.40;8.97;;;-0.20;93.40;;;;;;5101006;28;20422;-45
2022/01/07 02:04:42;;;;;;;11.87;8.50;;;-0.20;93.40;;;;;;5101369;28;20421;-44
2022/01/07 02:07:09;;;;;;;11.40;9.20;;;-0.20;93.40;;;;;;5100874;28;20426;-44
2022/01/07 02:10:15;;;;;;;12.40;9.07;;;-0.30;93.40;;;;;;5099807;28;20217;-44
2022/01/07 02:12:44;;;;;;;11.53;9.43;;;-0.30;93.30;;;;;;5099788;28;20411;-44
2022/01/07 02:15:11;;;;;;;10.03;8.07;;;-0.30;93.30;;;;;;5099678;28;20411;-44
2022/01/07 02:17:41;;;;;;;13.63;9.30;;;-0.30;93.30;;;;;;5099711;28;20479;-45
2022/01/07 02:20:07;;;;;;;12.20;10.03;;;-0.30;93.20;;;;;;5099327;28;20576;-44
2022/01/07 02:22:33;;;;;;;9.83;8.83;;;-0.30;93.20;;;;;;5099058;28;20434;-44
2022/01/07 02:24:59;;;;;;;9.23;8.30;;;-0.30;93.20;;;;;;5100999;28;20843;-44
2022/01/07 02:27:24;;;;;;;17.93;9.20;;;-0.30;93.30;;;;;;5100468;28;20426;-45
2022/01/07 02:29:51;;;;;;;16.77;10.70;;;-0.30;93.50;;;;;;5100338;28;20259;-44
2022/01/07 02:32:18;;;;;;;11.63;8.83;;;-0.30;93.60;;;;;;5100653;28;20238;-44
2022/01/07 02:34:44;;;;;;;15.47;9.57;;;-0.30;93.60;;;;;;5100489;28;20752;-44
2022/01/07 02:37:12;;;;;;;13.10;10.40;;;-0.30;93.70;;;;;;5100199;28;20517;-45
2022/01/07 02:39:38;;;;;;;14.83;9.93;;;-0.30;93.80;;;;;;5100379;28;20753;-44
2022/01/07 02:42:04;;;;;;;11.00;8.53;;;-0.30;93.90;;;;;;5100134;28;20418;-45
2022/01/07 02:44:30;;;;;;;9.70;8.40;;;-0.30;94.00;;;;;;5100553;28;20419;-45
2022/01/07 02:46:56;;;;;;;13.17;9.03;;;-0.30;94.00;;;;;;5100122;28;20431;-44
2022/01/07 02:49:21;;;;;;;9.97;8.17;;;-0.30;94.10;;;;;;5100229;28;20216;-44
2022/01/07 02:51:47;;;;;;;11.73;7.97;;;-0.30;94.10;;;;;;5099967;28;20527;-45
2022/01/07 02:54:13;;;;;;;12.73;9.63;;;-0.30;94.20;;;;;;5098829;28;20481;-44
2022/01/07 02:56:39;;;;;;;11.87;8.67;;;-0.20;94.30;;;;;;5118574;28;20633;-45
2022/01/07 02:59:06;;;;;;;14.17;8.40;;;-0.20;94.40;;;;;;5120324;28;20497;-44
2022/01/07 03:01:32;;;;;;;12.70;8.70;;;-0.20;94.40;;;;;;5120025;28;20421;-45
2022/01/07 03:03:57;;;;;;;12.13;9.67;;;-0.20;94.50;;;;;;5120259;28;20710;-45
2022/01/07 03:06:23;;;;;;;12.00;9.13;;;-0.20;94.50;;;;;;5120025;28;20409;-44
2022/01/07 03:08:50;;;;;;;10.20;8.30;;;-0.20;94.60;;;;;;5120372;28;20194;-45
2022/01/07 03:11:17;;;;;;;10.57;8.50;;;-0.20;94.50;;;;;;5120418;28;20598;-45
2022/01/07 03:13:43;;;;;;;10.30;8.07;;;-0.20;94.50;;;;;;5119980;28;20417;-44
2022/01/07 03:16:11;;;;;;;9.63;7.73;;;-0.20;94.50;;;;;;5119975;28;20428;-44
2022/01/07 03:18:37;;;;;;;8.80;7.50;;;-0.20;94.40;;;;;;5120044;28;20457;-44
2022/01/07 03:21:04;;;;;;;11.63;7.27;;;-0.20;94.40;;;;;;5129711;27;20461;-44
2022/01/07 03:23:30;;;;;;;11.17;7.57;;;-0.20;94.30;;;;;;5140128;27;20460;-45
2022/01/07 03:25:55;;;;;;;10.17;7.20;;;-0.30;94.10;;;;;;5140226;27;20409;-44
2022/01/07 03:28:23;;;;;;;9.43;7.00;;;-0.30;94.10;;;;;;5122463;27;20429;-44
2022/01/07 03:30:49;;;;;;;10.30;7.93;;;-0.30;94.00;;;;;;5139965;27;20211;-45
2022/01/07 03:33:15;;;;;;;8.03;7.23;;;-0.20;94.10;;;;;;5138719;27;20841;-44
2022/01/07 03:35:43;;;;;;;11.40;7.97;;;-0.30;94.00;;;;;;5139237;27;20274;-45
2022/01/07 03:38:08;;;;;;;9.40;7.20;;;-0.30;94.00;;;;;;5138904;27;20803;-45
2022/01/07 03:40:35;;;;;;;9.00;7.50;;;-0.30;94.00;;;;;;5139159;27;20570;-44
2022/01/07 03:43:01;;;;;;;11.80;7.87;;;-0.30;94.00;;;;;;5139941;27;20213;-44
2022/01/07 03:45:27;;;;;;;11.40;8.40;;;-0.30;94.00;;;;;;5139237;27;20760;-44
2022/01/07 03:47:53;;;;;;;10.30;7.73;;;-0.30;93.90;;;;;;5138829;27;20655;-45
2022/01/07 03:50:22;;;;;;;12.23;9.10;;;-0.30;93.90;;;;;;5138958;27;20487;-44
2022/01/07 03:52:48;;;;;;;8.70;7.80;;;-0.30;94.00;;;;;;5139462;27;20582;-45
2022/01/07 03:55:17;;;;;;;9.70;8.60;;;-0.40;94.00;;;;;;5139121;27;20473;-44
2022/01/07 03:57:43;;;;;;;9.40;8.23;;;-0.40;94.00;;;;;;5139353;27;20480;-43
2022/01/07 04:00:12;;;;;;;15.17;8.90;;;-0.40;94.00;;;;;;5139305;27;20406;-44
2022/01/07 04:02:41;;;;;;;10.53;8.30;;;-0.40;94.00;;;;;;5138736;27;20183;-44
2022/01/07 04:05:09;;;;;;;13.60;9.17;;;-0.40;94.00;;;;;;5139244;27;20412;-44
2022/01/07 04:07:35;;;;;;;12.60;9.07;;;-0.40;94.00;;;;;;5138831;27;20869;-45
2022/01/07 04:10:02;;;;;;;11.77;9.10;;;-0.40;94.00;;;;;;5138263;27;20468;-45
2022/01/07 04:12:27;;;;;;;13.47;8.00;;;-0.40;94.00;;;;;;5138863;27;20743;-45
2022/01/07 04:15:07;;;;;;;9.57;8.20;;;-0.40;94.10;;;;;;5138847;27;20412;-45
2022/01/07 04:17:37;;;;;;;12.70;8.90;;;-0.50;94.10;;;;;;5139042;27;20171;-45
2022/01/07 04:20:05;;;;;;;14.03;9.80;;;-0.50;94.20;;;;;;5139686;27;20417;-45
2022/01/07 04:22:32;;;;;;;11.03;8.90;;;-0.50;94.20;;;;;;5138830;27;20435;-45
2022/01/07 04:24:59;;;;;;;12.97;9.10;;;-0.50;94.20;;;;;;5139026;27;20415;-44
2022/01/07 04:27:27;;;;;;;12.40;8.83;;;-0.50;94.20;;;;;;5138985;27;20421;-43
2022/01/07 04:29:52;;;;;;;13.13;9.20;;;-0.50;94.30;;;;;;5121172;27;20707;-44
2022/01/07 04:32:18;;;;;;;10.90;7.57;;;-0.50;94.20;;;;;;5138159;27;20493;-45
2022/01/07 04:34:44;;;;;;;11.50;8.43;;;-0.40;94.40;;;;;;5138787;27;20171;-45
2022/01/07 04:37:10;;;;;;;12.50;8.77;;;-0.50;94.50;;;;;;5138938;27;20440;-44
2022/01/07 04:39:36;;;;;;;13.07;8.77;;;-0.50;94.60;;;;;;5139615;27;20420;-44
2022/01/07 04:42:02;;;;;;;11.50;8.70;;;-0.50;94.60;;;;;;5138960;27;20182;-44
2022/01/07 04:44:28;;;;;;;12.47;8.47;;;-0.50;94.70;;;;;;5138953;27;20452;-45
2022/01/07 04:46:53;;;;;;;11.83;7.47;;;-0.50;94.80;;;;;;5138601;27;20881;-45
2022/01/07 04:49:19;;;;;;;16.13;8.57;;;-0.50;94.80;;;;;;5138878;27;20215;-45
2022/01/07 04:51:45;;;;;;;12.37;8.60;;;-0.50;94.90;;;;;;5138827;27;20183;-45
2022/01/07 04:54:10;;;;;;;12.40;8.27;;;-0.50;94.90;;;;;;5138699;27;20210;-43
2022/01/07 04:56:36;;;;;;;12.13;8.63;;;-0.50;94.90;;;;;;5137931;27;20464;-45
2022/01/07 04:59:02;;;;;;;11.00;8.00;;;-0.50;94.90;;;;;;5138161;28;20580;-45
2022/01/07 05:01:29;;;;;;;13.90;9.60;;;-0.50;94.90;;;;;;5137502;28;20197;-45
2022/01/07 05:03:58;;;;;;;14.50;8.87;;;-0.50;95.00;;;;;;5137270;28;20185;-48
2022/01/07 05:08:52;;;;;;;16.07;9.53;;;-0.40;95.10;;;;;;5137220;28;20435;-46
2022/01/07 05:11:18;;;;;;;13.97;9.43;;;-0.40;95.10;;;;;;5137662;28;20740;-47
2022/01/07 05:13:43;;;;;;;12.03;8.33;;;-0.30;95.20;;;;;;5137612;28;20202;-47
2022/01/07 05:16:09;;;;;;;11.67;8.50;;;-0.30;95.30;;;;;;5137740;28;20466;-47
2022/01/07 05:18:34;;;;;;;15.83;9.33;;;-0.30;95.30;;;;;;5137959;27;20175;-47
2022/01/07 05:21:00;;;;;;;12.77;8.60;;;-0.20;95.40;;;;;;5141736;27;20285;-47
2022/01/07 05:23:26;;;;;;;14.47;10.13;;;-0.20;95.20;;;;;;5141120;27;20191;-47
2022/01/07 05:25:54;;;;;;;16.20;8.97;;;-0.20;95.20;;;;;;5142731;27;20175;-47
2022/01/07 05:28:19;;;;;;;12.37;9.53;;;-0.20;95.20;;;;;;5142375;27;20499;-47
2022/01/07 05:30:45;;;;;;;11.30;8.00;;;-0.20;95.20;;;;;;5142154;27;20625;-42
2022/01/07 05:33:10;;;;;;;11.77;10.57;;;-0.10;95.30;;;;;;5141087;27;20179;-41
2022/01/07 05:35:36;;;;;;;14.07;9.27;;;-0.10;95.40;;;;;;5122490;27;20176;-44
2022/01/07 05:38:01;;;;;;;12.80;9.97;;;-0.10;95.40;;;;;;5140917;27;20222;-42
2022/01/07 05:40:27;;;;;;;12.67;8.77;;;-0.10;95.30;;;;;;5140319;27;20179;-42
2022/01/07 05:42:53;;;;;;;14.07;8.70;;;-0.10;95.30;;;;;;5139938;27;20290;-40
2022/01/07 05:45:18;;;;;;;10.27;8.73;;;-0.10;95.40;;;;;;5140265;27;20184;-41
2022/01/07 05:47:44;;;;;;;14.33;8.53;;;-0.10;95.40;;;;;;5140271;27;20179;-39
2022/01/07 05:50:10;;;;;;;15.33;8.50;;;-0.10;95.50;;;;;;5140023;27;20207;-41
2022/01/07 05:52:36;;;;;;;14.40;8.80;;;-0.10;95.60;;;;;;5140397;27;20692;-41
2022/01/07 05:55:03;;;;;;;12.70;8.37;;;-0.10;95.60;;;;;;5140827;27;20480;-40
2022/01/07 05:57:28;;;;;;;13.00;8.47;;;-0.10;95.70;;;;;;5140604;27;20420;-40
2022/01/07 05:59:54;;;;;;;12.23;9.17;;;-0.10;95.70;;;;;;5139155;27;20440;-42
2022/01/07 06:02:20;;;;;;;13.63;9.40;;;0.00;95.80;;;;;;5140481;27;20180;-39
2022/01/07 06:04:47;;;;;;;11.33;8.30;;;0.00;95.80;;;;;;5140597;27;20179;-39
2022/01/07 06:07:13;;;;;;;13.53;9.10;;;0.00;95.80;;;;;;5141181;27;20261;-40
2022/01/07 06:09:39;;;;;;;11.53;9.00;;;0.00;95.70;;;;;;5141051;27;20425;-39
2022/01/07 06:12:05;;;;;;;12.60;8.13;;;0.00;95.70;;;;;;5140376;27;20409;-41
2022/01/07 06:14:34;;;;;;;12.37;8.93;;;0.00;95.70;;;;;;5140830;27;20448;-39
2022/01/07 06:17:00;;;;;;;14.90;10.20;;;0.10;95.70;;;;;;5140795;27;20511;-40
2022/01/07 06:19:25;;;;;;;13.20;9.83;;;0.10;95.70;;;;;;5141281;27;20452;-42
2022/01/07 06:21:51;;;;;;;14.43;9.37;;;0.10;95.60;;;;;;5140245;27;20437;-40
2022/01/07 06:24:16;;;;;;;14.47;9.60;;;0.10;95.60;;;;;;5121116;27;20585;-41
2022/01/07 06:26:42;;;;;;;12.53;9.33;;;0.10;95.60;;;;;;5118804;28;20176;-39
2022/01/07 06:29:08;;;;;;;12.80;8.97;;;0.20;95.60;;;;;;5135805;27;20180;-40
2022/01/07 06:31:34;;;;;;;12.13;8.97;;;0.20;95.50;;;;;;5137105;27;20209;-40
2022/01/07 06:34:02;;;;;;;14.97;9.93;;;0.20;95.50;;;;;;5138746;27;20809;-40
2022/01/07 06:36:29;;;;;;;12.83;8.73;;;0.20;95.60;;;;;;5138998;27;20182;-39
2022/01/07 06:38:55;;;;;;;13.13;8.97;;;0.20;95.70;;;;;;5138341;27;20898;-41
2022/01/07 06:41:20;;;;;;;15.07;9.97;;;0.10;95.60;;;;;;5137866;27;20440;-40
2022/01/07 06:43:46;;;;;;;14.17;9.13;;;0.20;95.70;;;;;;5137230;27;20175;-39
2022/01/07 06:46:14;;;;;;;11.90;9.67;;;0.20;95.70;;;;;;5128439;27;20461;-41
2022/01/07 06:48:41;;;;;;;12.10;9.53;;;0.20;95.80;;;;;;5101140;28;20183;-40
2022/01/07 06:51:07;;;;;;;15.00;10.20;;;0.20;95.70;;;;;;5119187;28;20685;-42
2022/01/07 06:53:32;;;;;;;12.30;9.10;;;0.20;95.70;;;;;;5118730;28;20433;-40
2022/01/07 06:55:58;;;;;;;10.10;7.90;;;0.20;95.60;;;;;;5119466;28;20474;-40
2022/01/07 06:58:25;;;;;;;13.57;9.70;;;0.20;95.60;;;;;;5118647;28;20717;-40
2022/01/07 07:00:50;;;;;;;14.60;9.60;;;0.20;95.70;;;;;;5118920;28;20528;-40
2022/01/07 07:03:18;;;;;;;11.90;9.00;;;0.30;95.70;;;;;;5117642;28;20493;-40
2022/01/07 07:05:44;;;;;;;11.20;9.07;;;0.30;95.70;;;;;;5117995;28;20169;-41
2022/01/07 07:08:10;;;;;;;12.37;8.97;;;0.30;95.70;;;;;;5117125;28;21009;-40
2022/01/07 07:10:35;;;;;;;12.23;9.17;;;0.30;95.70;;;;;;5116139;28;20200;-40
2022/01/07 07:13:01;;;;;;;15.23;9.47;;;0.30;95.70;;;;;;5116382;28;20530;-43
2022/01/07 07:15:27;;;;;;;13.30;9.30;;;0.30;95.70;;;;;;5116481;28;20171;-39
2022/01/07 07:17:52;;;;;;;12.90;8.53;;;0.40;95.70;;;;;;5116948;28;20263;-40
2022/01/07 07:20:18;;;;;;;13.30;9.83;;;0.40;95.70;;;;;;5117295;28;20211;-42
2022/01/07 07:22:44;;;;;;;14.20;11.20;;;0.40;95.70;;;;;;5117709;28;20192;-41
2022/01/07 07:25:10;;;;;;;13.60;9.60;;;0.40;95.70;;;;;;5117432;28;20414;-41
2022/01/07 07:27:36;;;;;;;14.40;10.13;;;0.40;95.70;;;;;;5118191;28;20455;-40
2022/01/07 07:30:04;;;;;;;14.93;9.43;;;0.50;95.60;;;;;;5118543;28;20473;-41
2022/01/07 07:32:31;;;;;;;15.13;11.30;;;0.50;95.60;;;;;;5117941;28;20591;-40
2022/01/07 07:35:03;;;;;;;12.40;9.43;;;0.50;95.60;;;;;;5117944;28;20438;-40
2022/01/07 07:37:29;;;;;;;15.30;10.30;;;0.50;95.60;;;;;;5117993;28;20418;-42
2022/01/07 07:39:55;;;;;;;13.50;9.63;;;0.50;95.60;;;;;;5117619;28;20422;-40
2022/01/07 07:42:21;;;;;;;13.10;9.63;;;0.50;95.60;;;;;;5118351;28;20421;-41
2022/01/07 07:44:47;;;;;;;14.43;10.83;;;0.60;95.60;;;;;;5119237;28;20422;-42
2022/01/07 07:47:13;;;;;;;14.93;9.77;;;0.60;95.60;;;;;;5119677;28;20422;-41
2022/01/07 07:49:39;;;;;;;16.27;10.80;;;0.70;95.60;;;;;;5119276;28;20429;-42
2022/01/07 07:52:05;;;;;;;18.03;10.80;;;0.70;95.50;;;;;;5118869;28;20438;-41
2022/01/07 07:54:31;;;;;;;12.13;9.20;;;0.80;95.40;;;;;;5117800;28;20255;-39
2022/01/07 07:56:58;;;;;;;15.73;10.97;;;0.80;95.40;;;;;;5117347;28;20759;-40
2022/01/07 07:59:24;;;;;;;13.20;9.80;;;1.10;95.50;;;;;;5118002;28;20176;-40
2022/01/07 08:01:50;;;;;;;15.10;9.77;;;1.30;95.40;;;;;;5127961;27;20440;-40
2022/01/07 08:04:18;;;;;;;14.80;10.30;;;1.60;95.20;;;;;;5123467;27;20858;-40
2022/01/07 08:06:44;;;;;;;15.07;10.27;;;1.80;94.90;;;;;;5116997;28;20213;-40
2022/01/07 08:09:09;;;;;;;11.97;9.47;;;2.00;94.30;;;;;;5118426;28;20414;-43
2022/01/07 08:11:48;;;;;;;14.77;10.60;;;2.00;93.90;;;;;;5099461;28;20800;-40
2022/01/07 08:16:58;;;;;;;15.23;10.63;;;2.00;93.50;;;;;;5115560;28;20494;-40
2022/01/07 08:19:24;;;;;;;13.00;10.00;;;2.10;93.50;;;;;;5114010;28;20410;-40
2022/01/07 08:21:50;;;;;;;14.57;9.40;;;2.10;93.50;;;;;;5115490;28;20184;-42
2022/01/07 08:24:15;;;;;;;14.13;10.23;;;2.10;93.40;;;;;;5115832;28;20233;-39
2022/01/07 08:26:41;;;;;;;13.47;9.70;;;2.10;93.30;;;;;;5095708;28;20449;-40
2022/01/07 08:29:09;;;;;;;15.07;9.60;;;2.10;93.30;;;;;;5114785;28;20625;-41
2022/01/07 08:36:51;;;;;;;11.40;8.80;;;2.10;93.00;;;;;;5115779;28;20490;-42
2022/01/07 08:39:17;;;;;;;12.90;10.27;;;2.20;93.00;;;;;;5115522;28;20413;-42
2022/01/07 08:41:43;;;;;;;13.40;10.50;;;2.20;93.00;;;;;;5114228;28;20790;-39
2022/01/07 08:44:09;;;;;;;12.37;9.60;;;2.20;92.90;;;;;;5114534;28;20593;-40
2022/01/07 08:46:35;;;;;;;16.30;10.17;;;2.20;92.80;;;;;;5114027;28;20278;-40
2022/01/07 08:49:02;;;;;;;18.07;9.07;;;2.30;92.80;;;;;;5113879;28;20506;-40
2022/01/07 08:51:27;;;;;;;10.50;9.00;;;2.30;92.80;;;;;;5113202;28;20203;-41
2022/01/07 08:53:56;;;;;;;11.87;9.27;;;2.40;92.80;;;;;;5110558;28;20429;-41
2022/01/07 08:56:26;;;;;;;12.73;9.80;;;2.40;92.80;;;;;;5111691;28;20220;-40
2022/01/07 08:58:56;;;;;;;13.23;10.03;;;2.40;92.70;;;;;;5111632;28;20419;-40
2022/01/07 09:01:23;;;;;;;14.27;10.87;;;2.40;92.70;;;;;;5111880;28;20418;-40
2022/01/07 09:03:49;;;;;;;11.20;8.60;;;2.50;92.80;;;;;;5112912;28;20414;-41
2022/01/07 09:06:14;;;;;;;15.37;10.17;;;2.60;92.80;;;;;;5115081;28;20694;-40
2022/01/07 09:08:40;;;;;;;13.17;8.60;;;2.60;92.60;;;;;;5114685;28;20188;-40
2022/01/07 09:11:06;;;;;;;14.33;9.53;;;2.70;92.60;;;;;;5114252;28;20218;-40
2022/01/07 09:13:31;;;;;;;12.10;9.80;;;2.80;92.50;;;;;;5114141;28;20426;-43
2022/01/07 09:15:57;;;;;;;13.47;8.60;;;2.90;92.40;;;;;;5114936;28;20467;-40
2022/01/07 09:18:23;;;;;;;10.60;9.20;;;3.00;92.30;;;;;;5115447;28;20400;-40
2022/01/07 09:20:49;;;;;;;12.87;9.77;;;3.10;92.20;;;;;;5115848;28;20183;-40
2022/01/07 09:23:15;;;;;;;12.23;9.30;;;3.20;92.00;;;;;;5097781;28;20178;-41
2022/01/07 09:25:41;;;;;;;11.53;9.40;;;3.20;91.90;;;;;;5115247;28;20514;-40
2022/01/07 09:28:08;;;;;;;11.17;8.80;;;3.30;91.90;;;;;;5115146;28;20545;-42
2022/01/07 09:30:35;;;;;;;12.97;8.83;;;3.30;91.90;;;;;;5115560;28;20690;-40
2022/01/07 09:33:00;;;;;;;11.00;9.00;;;3.30;91.90;;;;;;5116087;28;20510;-41
2022/01/07 09:35:27;;;;;;;10.60;9.50;;;3.20;91.80;;;;;;5097998;28;20870;-41
2022/01/07 09:37:52;;;;;;;10.47;8.50;;;3.20;91.80;;;;;;5114938;28;20173;-42
2022/01/07 09:40:19;;;;;;;11.13;8.60;;;3.20;91.70;;;;;;5114016;28;20464;-40
2022/01/07 09:43:05;;;;;;;10.90;9.20;;;3.20;91.80;;;;;;5113465;28;20171;-40
2022/01/07 09:45:32;;;;;;;10.37;8.00;;;3.20;91.60;;;;;;5113005;28;20853;-42
2022/01/07 09:47:58;;;;;;;11.13;8.43;;;3.20;91.50;;;;;;5112179;28;20512;-41
2022/01/07 09:50:26;;;;;;;12.20;10.07;;;3.20;91.50;;;;;;5114615;28;20462;-41
2022/01/07 09:52:52;;;;;;;9.83;7.60;;;3.20;91.50;;;;;;5113989;28;20554;-41
2022/01/07 09:55:18;;;;;;;9.93;8.93;;;3.20;91.50;;;;;;5114188;28;20462;-41
2022/01/07 09:57:43;;;;;;;11.23;9.00;;;3.20;91.60;;;;;;5115535;28;20431;-41
2022/01/07 10:00:11;;;;;;;16.23;10.13;;;3.20;91.60;;;;;;5114880;28;20172;-40
2022/01/07 10:02:36;;;;;;;11.50;9.10;;;3.20;91.60;;;;;;5114812;28;20190;-42
2022/01/07 10:05:18;;;;;;;11.90;9.10;;;3.20;91.60;;;;;;5115336;28;20413;-41
2022/01/07 10:07:44;;;;;;;11.13;8.77;;;3.20;91.60;;;;;;5118017;28;20192;-43
2022/01/07 10:10:14;;;;;;;10.47;8.20;;;3.20;91.70;;;;;;5119655;28;20569;-40
2022/01/07 10:12:51;;;;;;;10.67;9.17;;;3.10;91.70;;;;;;5119909;28;20429;-42
2022/01/07 10:15:25;;;;;;;9.47;7.63;;;3.10;91.80;;;;;;5119635;28;20421;-41
2022/01/07 10:18:11;;;;;;;11.60;8.70;;;3.10;92.00;;;;;;5120620;28;20417;-42
2022/01/07 10:20:38;;;;;;;12.27;8.40;;;3.10;92.10;;;;;;5118276;28;20455;-41
2022/01/07 10:23:13;;;;;;;10.43;8.53;;;3.10;92.30;;;;;;5117448;28;21050;-39
2022/01/07 10:25:41;;;;;;;11.87;7.90;;;3.10;92.40;;;;;;5116174;28;20416;-40
2022/01/07 10:28:33;;;;;;;15.03;9.10;;;3.10;92.50;;;;;;5114997;28;20493;-41
2022/01/07 10:31:02;;;;;;;10.30;9.07;;;3.20;92.70;;;;;;5107018;28;20529;-41
2022/01/07 10:33:39;;;;;;;9.93;8.23;;;3.20;92.60;;;;;;5115906;28;20512;-41
2022/01/07 10:36:07;;;;;;;10.70;8.50;;;3.20;92.60;;;;;;5116349;28;20719;-40
2022/01/07 10:38:35;;;;;;;9.90;8.87;;;3.20;92.60;;;;;;5116063;28;20427;-41
2022/01/07 10:41:02;;;;;;;10.47;9.10;;;3.20;92.60;;;;;;5118310;28;20426;-43
2022/01/07 10:43:35;;;;;;;12.27;8.80;;;3.20;92.60;;;;;;5132669;27;20442;-40
2022/01/07 10:46:11;;;;;;;9.50;8.20;;;3.10;92.60;;;;;;5121770;27;20824;-41
2022/01/07 10:48:42;;;;;;;9.40;8.27;;;3.10;92.60;;;;;;5123237;27;20452;-40
2022/01/07 10:51:32;;;;;;;11.90;8.80;;;3.10;92.60;;;;;;5138846;27;20734;-40
2022/01/07 10:54:01;;;;;;;11.37;8.13;;;3.00;92.70;;;;;;5139381;27;20423;-42
2022/01/07 10:56:37;;;;;;;9.13;7.60;;;3.00;92.80;;;;;;5121552;27;20468;-41
2022/01/07 10:59:08;;;;;;;9.80;7.90;;;3.00;92.90;;;;;;5122653;27;20424;-40
2022/01/07 11:01:38;;;;;;;11.50;9.23;;;3.00;93.10;;;;;;5139817;27;20527;-40
2022/01/07 11:04:07;;;;;;;9.67;7.87;;;3.00;93.20;;;;;;5139752;27;20428;-41
2022/01/07 11:06:34;;;;;;;12.20;8.30;;;2.90;93.30;;;;;;5139852;27;20834;-40
2022/01/07 11:09:00;;;;;;;9.23;7.97;;;2.90;93.50;;;;;;5121829;27;20438;-40
2022/01/07 11:11:28;;;;;;;9.00;7.70;;;2.90;93.60;;;;;;5137791;27;20740;-43
2022/01/07 11:14:00;;;;;;;10.53;7.50;;;2.90;93.70;;;;;;5136744;27;20416;-46
2022/01/07 11:16:26;;;;;;;11.60;8.80;;;2.90;93.80;;;;;;5134284;27;20432;-41
2022/01/07 11:18:52;;;;;;;9.40;7.43;;;3.00;93.90;;;;;;5134238;27;20422;-40
2022/01/07 11:21:19;;;;;;;13.50;8.83;;;3.00;94.00;;;;;;5135435;27;20182;-39
2022/01/07 11:23:45;;;;;;;9.83;7.60;;;3.10;94.10;;;;;;5100678;27;20516;-40
2022/01/07 11:26:16;;;;;;;8.80;7.20;;;3.20;94.10;;;;;;5137280;27;20516;-43
2022/01/07 11:29:02;;;;;;;11.47;8.70;;;3.40;94.20;;;;;;5137936;27;20270;-40
2022/01/07 11:31:28;;;;;;;8.77;6.73;;;3.60;94.00;;;;;;5139013;27;20475;-40
2022/01/07 11:34:19;;;;;;;12.03;8.60;;;3.70;93.70;;;;;;5138720;27;20901;-39
2022/01/07 11:36:45;;;;;;;11.80;8.47;;;3.90;93.50;;;;;;5138486;27;20459;-40
2022/01/07 11:39:11;;;;;;;11.63;8.10;;;4.10;93.20;;;;;;5138063;27;20553;-39
2022/01/07 11:41:56;;;;;;;9.97;8.73;;;4.30;92.90;;;;;;5137439;27;20512;-38
2022/01/07 11:44:31;;;;;;;9.87;8.07;;;4.50;92.90;;;;;;5137683;27;20191;-41
2022/01/07 11:47:21;;;;;;;8.50;7.43;;;4.80;92.50;;;;;;5137115;27;20413;-41
2022/01/07 11:50:00;;;;;;;9.60;8.00;;;5.10;92.10;;;;;;5136681;27;20527;-39
2022/01/07 11:52:31;;;;;;;8.23;7.30;;;5.40;91.70;;;;;;5136326;27;20421;-40
2022/01/07 11:55:18;;;;;;;8.03;7.23;;;5.60;91.30;;;;;;5118222;27;20472;-40
2022/01/07 11:57:55;;;;;;;8.70;7.40;;;5.70;90.20;;;;;;5137556;27;20400;-38
2022/01/07 12:00:54;;;;;;;8.57;7.10;;;5.70;90.00;;;;;;5103215;27;20437;-42
2022/01/07 12:03:38;;;;;;;7.30;6.60;;;5.70;89.40;;;;;;5136160;27;20459;-40
2022/01/07 12:06:26;;;;;;;7.50;6.10;;;5.60;89.30;;;;;;5118876;27;20527;-40
2022/01/07 12:09:09;;;;;;;8.43;7.10;;;5.50;89.50;;;;;;5119918;27;20421;-41
2022/01/07 12:11:35;;;;;;;8.13;6.43;;;5.50;89.40;;;;;;5137865;27;20456;-41
2022/01/07 12:14:03;;;;;;;9.40;6.53;;;5.40;89.60;;;;;;5137230;27;20409;-40
2022/01/07 12:16:31;;;;;;;8.77;7.27;;;5.30;89.80;;;;;;5136459;27;20424;-40
2022/01/07 12:19:14;;;;;;;6.87;6.03;;;5.30;90.00;;;;;;5135297;27;20423;-41
2022/01/07 12:21:40;;;;;;;7.83;6.70;;;5.20;90.10;;;;;;5136887;27;20412;-40
2022/01/07 12:24:10;;;;;;;8.40;7.37;;;5.20;90.10;;;;;;5137057;27;20755;-40
2022/01/07 12:26:37;;;;;;;7.03;6.33;;;5.20;90.20;;;;;;5118547;27;20424;-40
2022/01/07 12:29:03;;;;;;;8.97;7.17;;;5.20;90.10;;;;;;5137714;27;20450;-42
2022/01/07 12:31:32;;;;;;;7.67;6.90;;;5.20;90.10;;;;;;5137972;27;20475;-41
2022/01/07 12:33:59;;;;;;;8.90;6.13;;;5.20;90.20;;;;;;5137957;27;20538;-42
2022/01/07 12:36:32;;;;;;;7.47;6.10;;;5.20;90.20;;;;;;5137300;27;20419;-41
2022/01/07 12:39:09;;;;;;;7.87;6.90;;;5.30;90.20;;;;;;5138067;27;20830;-41
2022/01/07 12:41:36;;;;;;;8.67;6.63;;;5.30;90.00;;;;;;5120547;27;20432;-41
2022/01/07 12:44:04;;;;;;;8.93;6.57;;;5.40;90.10;;;;;;5138718;27;20415;-40
2022/01/07 12:46:30;;;;;;;8.97;6.67;;;5.60;89.70;;;;;;5138889;27;20500;-41
2022/01/07 12:48:56;;;;;;;6.43;5.50;;;5.70;88.90;;;;;;5139417;27;20517;-42
2022/01/07 12:51:24;;;;;;;9.43;6.40;;;5.80;88.90;;;;;;5136105;27;20209;-41
2022/01/07 12:53:56;;;;;;;6.63;5.67;;;5.80;88.70;;;;;;5137594;27;20253;-42
2022/01/07 12:56:30;;;;;;;9.23;6.03;;;5.90;88.40;;;;;;5137821;27;20514;-41
2022/01/07 12:58:57;;;;;;;7.03;5.83;;;6.00;88.20;;;;;;5135655;27;20504;-42
2022/01/07 13:01:32;;;;;;;8.60;7.03;;;6.40;87.90;;;;;;5119186;28;20840;-40